Detall de PIREP

Printer-friendly versionPDF version

[2009/05/23 16:34:00]
Flight IATA:CT2110
Pilot Number:011
Company ICAO:CAT
Aircraft Type:B738/F
PAX:160
Departing Airport: LEVC
Destination Airport: LEST
Alternate Airport:LEMD
Online: VATSIM
Route:N0380F230 CENTA A33 PRADO/N0430F350 UN733 BARKO
Flight Level:FL350
No Slew and time accel
No pause
Crash detect
Detect pilot in Cockpit between each 30 and 45 minutes
16:34 Zero fuel Weight: 134500 Lbs, Fuel Weight: 18423 Lbs
16:34 VATSIM:LEVC 231600Z 07014KT 9999 SCT025 24/19 Q1012 NOSIG
16:34 VATSIM:LEST 231619Z 19007KT 160V220 5000 SHRA FEW008 FEW010CB BKN012 14/14 Q1016 RETS NOSIG
16:36 Parking Brakes off
16:47 Take-off
16:47 Take off Weight: 151908 Lbs
16:47 Wind: 093 @ 012 Knots Heading: 116
16:47 POS N39 29 18 W000 28 45
16:47 Flaps:5 at 173 Knots
16:47 Gear Up: 175 Knots
16:48 Flaps:6 at 239 Knots
16:48 Flaps:5 at 238 Knots
16:48 Flaps:4 at 236 Knots

16:48 Flaps:3 at 238 Knots
16:48 Flaps:2 at 239 Knots
16:49 Flaps:1 at 240 Knots
16:49 Flaps:0 at 241 Knots
17:08 TOC
17:08 Fuel Weight: 13890 Lb
17:35 TOD
17:35 Fuel Weight: 11586 Lb
17:57 Flaps:1 at 249 Knots
17:57 Flaps:2 at 248 Knots
17:57 Flaps:3 at 228 Knots
17:57 Flaps:4 at 222 Knots
17:58 Flaps:5 at 214 Knots
17:59 Flaps:6 at 195 Knots
17:59 Gear Down: 194 Knots
17:59 Flaps:7 at 169 Knots
18:00 Flaps:8 at 152 Knots
18:01 TouchDown:Rate -339 ft/min Speed: 141 Knots
18:02 Wind:024@007 Knots Heading: 346 Ground Speed: 100 Knots Altitude 1220 ft
18:02 VATSIM:LEST 231730Z 36007KT 320V020 5000 SHRA FEW005 SCT015CB BKN025 11/11 Q1016 NOSIG
18:02 Land
18:02 Wind:026@007 Knots
18:02 Heading: 346
18:02 Flight Duration: 01:15
18:02 Landing Weight: 144985 Lbs
18:02 POS N42 53 49 W008 24 55
18:05 Parking brakes on
18:05 Block to Block Dura
tion: 01:29
18:05 Final Fuel: 10092 Lbls
18:05 Spent Fuel: 8331 Lbls
18:05 Flight Length: 72 NM
18:05 TOD Land Length: 04 NM

Exportar CSV

Powered by Drupal - Modified by Danger4k